KSDM/SDM METAR and TAF weather

Enter ICAO airport designator
Station Type Date Time Source
KSDM METAR 2020/09/23 02:53 UTC NOAA

KSDM 230253Z 29004KT 10SM CLR 19/17 A3000 RMK AO2 SLP156 T01940167 53006


Station Type Date Time Source
KSDM Decoded METAR 2020/09/23 02:53 UTC NOAA

San Diego, Brown Field Municipal Airport, CA, United States (KSDM) 32-34-31N 116-59-35W 159M
Sep 22, 2020 - 10:53 PM EDT / 2020.09.23 0253 UTC
Wind: from the WNW (290 degrees) at 5 MPH (4 KT):0
Visibility: 10 mile(s):0
Sky conditions: clear
Temperature: 66.9 F (19.4 C)
Dew Point: 62.1 F (16.7 C)
Relative Humidity: 84%
Pressure (altimeter): 30 in. Hg (1015 hPa)
Pressure tendency: 0.02 inches (0.6 hPa) higher than three hours ago
ob: KSDM 230253Z 29004KT 10SM CLR 19/17 A3000 RMK AO2 SLP156 T01940167 53006
cycle: 3

Station Type Date Time Source
KSDM TAF UTC NOAA

Error!

Example: see airport list